Terminal Aerodrome Forecast
Issued by NWS

Home | Current Version | Previous Version | Text Only | Print | Product List | Glossary On
Versions: 1 2 3 4 5 6 7 8 9 10 11 12
413
FTUS46 KMTR 260525
TAFSNS
TAF
KSNS 260525Z 2606/2706 VRB03KT P6SM FEW200
     FM261500 12005KT P6SM SKC
     FM261900 29010KT P6SM SKC
     FM270300 29008KT P6SM SKC=

USA.gov is the U.S. government's official web portal to all federal, state and local government web resources and services.